sim
Sign-in with your pilot id or email,
or register
Callsign
Passwort

Schedule Details

Flight Number: EWG1919
Departure: Dusseldorf International Airport (EDDL) at 20:15
Arrival: Munich Airport (EDDM) at 21:30
Route: Eurowings Passenger Schedule. Enter filed route here before submitting Pirep.

Weather Information
Getting current METAR information for EDDL 210320Z 06003KT CAVOK 09/07 Q1016 NOSIG
Getting current METAR information for EDDM 210320Z 15001KT CAVOK 08/07 Q1016 NOSIG

Schedule Frequency

Route Map